sensor_id;sensor_type;location;lat;lon;timestamp;pressure;altitude;pressure_sealevel;temperature;humidity
63691;BME280;49837;57.280;27.070;2022-07-03T00:00:55;100574.05;;;19.22;92.34
63691;BME280;49837;57.280;27.070;2022-07-03T00:01:55;100571.12;;;19.22;92.25
63691;BME280;49837;57.280;27.070;2022-07-03T00:02:56;100571.73;;;19.22;92.35
63691;BME280;49837;57.280;27.070;2022-07-03T00:03:56;100572.19;;;19.21;92.39
63691;BME280;49837;57.280;27.070;2022-07-03T00:04:56;100569.25;;;19.21;92.31
63691;BME280;49837;57.280;27.070;2022-07-03T00:05:57;100568.93;;;19.19;92.58
63691;BME280;49837;57.280;27.070;2022-07-03T00:06:57;100568.48;;;19.14;92.57
63691;BME280;49837;57.280;27.070;2022-07-03T00:07:57;100569.52;;;19.12;93.06
63691;BME280;49837;57.280;27.070;2022-07-03T00:08:58;100569.34;;;19.12;93.2
63691;BME280;49837;57.280;27.070;2022-07-03T00:09:58;100561.16;;;19.14;92.64
63691;BME280;49837;57.280;27.070;2022-07-03T00:10:59;100565.11;;;19.12;92.81
63691;BME280;49837;57.280;27.070;2022-07-03T00:11:59;100562.83;;;19.05;93.14
63691;BME280;49837;57.280;27.070;2022-07-03T00:12:59;100562.25;;;19.03;93.25
63691;BME280;49837;57.280;27.070;2022-07-03T00:14:00;100563.05;;;19.04;93.14
63691;BME280;49837;57.280;27.070;2022-07-03T00:15:00;100562.39;;;19.01;93.15
63691;BME280;49837;57.280;27.070;2022-07-03T00:16:01;100562.61;;;19.01;93.43
63691;BME280;49837;57.280;27.070;2022-07-03T00:17:01;100561.87;;;19.01;93.25
63691;BME280;49837;57.280;27.070;2022-07-03T00:18:01;100566.16;;;19.0;93.13
63691;BME280;49837;57.280;27.070;2022-07-03T00:19:02;100560.71;;;18.99;93.33
63691;BME280;49837;57.280;27.070;2022-07-03T00:20:02;100561.31;;;19.0;93.26
63691;BME280;49837;57.280;27.070;2022-07-03T00:21:04;100562.28;;;19.0;93.27
63691;BME280;49837;57.280;27.070;2022-07-03T00:22:05;100561.53;;;19.02;93.25
63691;BME280;49837;57.280;27.070;2022-07-03T00:23:04;100561.31;;;19.0;93.13
63691;BME280;49837;57.280;27.070;2022-07-03T00:24:09;100562.3;;;18.95;93.05
63691;BME280;49837;57.280;27.070;2022-07-03T00:25:10;100557.7;;;18.93;93.6
63691;BME280;49837;57.280;27.070;2022-07-03T00:26:11;100556.48;;;18.98;93.72
63691;BME280;49837;57.280;27.070;2022-07-03T00:27:09;100561.55;;;19.01;93.44
63691;BME280;49837;57.280;27.070;2022-07-03T00:28:10;100561.88;;;18.99;93.35
63691;BME280;49837;57.280;27.070;2022-07-03T00:29:10;100563.84;;;18.95;93.26
63691;BME280;49837;57.280;27.070;2022-07-03T00:30:11;100563.05;;;18.91;93.06
63691;BME280;49837;57.280;27.070;2022-07-03T00:31:11;100564.97;;;18.86;93.18
63691;BME280;49837;57.280;27.070;2022-07-03T00:32:13;100566.51;;;18.86;93.26
63691;BME280;49837;57.280;27.070;2022-07-03T00:33:12;100573.55;;;18.83;93.9
63691;BME280;49837;57.280;27.070;2022-07-03T00:34:15;100574.12;;;18.8;93.75
63691;BME280;49837;57.280;27.070;2022-07-03T00:35:16;100576.95;;;18.72;93.98
63691;BME280;49837;57.280;27.070;2022-07-03T00:36:14;100573.12;;;18.69;94.62
63691;BME280;49837;57.280;27.070;2022-07-03T00:37:14;100574.09;;;18.67;94.46
63691;BME280;49837;57.280;27.070;2022-07-03T00:38:16;100577.68;;;18.65;94.51
63691;BME280;49837;57.280;27.070;2022-07-03T00:39:15;100572.9;;;18.64;95.14
63691;BME280;49837;57.280;27.070;2022-07-03T00:40:15;100573.52;;;18.65;95.34
63691;BME280;49837;57.280;27.070;2022-07-03T00:42:21;100573.7;;;18.68;95.35
63691;BME280;49837;57.280;27.070;2022-07-03T00:43:21;100575.83;;;18.69;95.15
63691;BME280;49837;57.280;27.070;2022-07-03T00:44:22;100575.54;;;18.69;95.1
63691;BME280;49837;57.280;27.070;2022-07-03T00:45:22;100576.22;;;18.69;94.77
63691;BME280;49837;57.280;27.070;2022-07-03T00:46:24;100577.07;;;18.67;94.71
63691;BME280;49837;57.280;27.070;2022-07-03T00:47:24;100578.2;;;18.66;95.01
63691;BME280;49837;57.280;27.070;2022-07-03T00:48:23;100579.27;;;18.67;94.95
63691;BME280;49837;57.280;27.070;2022-07-03T00:49:24;100576.68;;;18.64;95.09
63691;BME280;49837;57.280;27.070;2022-07-03T00:50:34;100577.73;;;18.64;95.02
63691;BME280;49837;57.280;27.070;2022-07-03T00:51:28;100575.44;;;18.6;95.28
63691;BME280;49837;57.280;27.070;2022-07-03T00:52:28;100573.34;;;18.6;95.36
63691;BME280;49837;57.280;27.070;2022-07-03T00:53:29;100566.72;;;18.62;95.03
63691;BME280;49837;57.280;27.070;2022-07-03T00:54:33;100567.83;;;18.6;95.42
63691;BME280;49837;57.280;27.070;2022-07-03T00:55:32;100568.11;;;18.57;95.69
63691;BME280;49837;57.280;27.070;2022-07-03T00:56:33;100568.78;;;18.6;95.82
63691;BME280;49837;57.280;27.070;2022-07-03T00:57:33;100570.02;;;18.63;95.5
63691;BME280;49837;57.280;27.070;2022-07-03T00:58:33;100572.17;;;18.64;95.28
63691;BME280;49837;57.280;27.070;2022-07-03T00:59:33;100571.2;;;18.65;95.04
63691;BME280;49837;57.280;27.070;2022-07-03T01:00:39;100568.29;;;18.64;94.97
63691;BME280;49837;57.280;27.070;2022-07-03T01:01:37;100569.3;;;18.62;95.24
63691;BME280;49837;57.280;27.070;2022-07-03T01:03:45;100575.05;;;18.58;95.37
63691;BME280;49837;57.280;27.070;2022-07-03T01:05:54;100574.05;;;18.57;95.42
63691;BME280;49837;57.280;27.070;2022-07-03T01:06:56;100577.81;;;18.56;95.31
63691;BME280;49837;57.280;27.070;2022-07-03T01:08:58;100582.44;;;18.43;96.1
63691;BME280;49837;57.280;27.070;2022-07-03T01:20:26;100596.05;;;18.46;96.36
63691;BME280;49837;57.280;27.070;2022-07-03T01:22:36;100597.45;;;18.38;96.91
63691;BME280;49837;57.280;27.070;2022-07-03T01:25:49;100597.02;;;18.5;95.78
63691;BME280;49837;57.280;27.070;2022-07-03T01:26:38;100595.38;;;18.49;96.01
63691;BME280;49837;57.280;27.070;2022-07-03T01:28:44;100595.44;;;18.47;96.26
63691;BME280;49837;57.280;27.070;2022-07-03T01:30:52;100595.53;;;18.38;96.91
63691;BME280;49837;57.280;27.070;2022-07-03T01:31:53;100594.97;;;18.35;97.0
63691;BME280;49837;57.280;27.070;2022-07-03T01:33:05;100598.65;;;18.34;97.17
63691;BME280;49837;57.280;27.070;2022-07-03T01:33:53;100597.74;;;18.35;97.29
63691;BME280;49837;57.280;27.070;2022-07-03T01:34:54;100600.77;;;18.38;97.03
63691;BME280;49837;57.280;27.070;2022-07-03T01:36:07;100600.09;;;18.39;96.7
63691;BME280;49837;57.280;27.070;2022-07-03T01:36:57;100602.39;;;18.42;96.71
63691;BME280;49837;57.280;27.070;2022-07-03T01:38:05;100603.88;;;18.45;96.59
63691;BME280;49837;57.280;27.070;2022-07-03T01:38:59;100604.45;;;18.42;96.71
63691;BME280;49837;57.280;27.070;2022-07-03T01:40:02;100607.75;;;18.44;96.65
63691;BME280;49837;57.280;27.070;2022-07-03T01:41:02;100614.53;;;18.48;96.44
63691;BME280;49837;57.280;27.070;2022-07-03T01:42:00;100614.29;;;18.43;96.62
63691;BME280;49837;57.280;27.070;2022-07-03T01:43:03;100615.53;;;18.4;96.89
63691;BME280;49837;57.280;27.070;2022-07-03T01:44:01;100616.48;;;18.42;96.92
63691;BME280;49837;57.280;27.070;2022-07-03T01:45:02;100617.16;;;18.43;96.87
63691;BME280;49837;57.280;27.070;2022-07-03T01:46:03;100615.69;;;18.5;96.32
63691;BME280;49837;57.280;27.070;2022-07-03T01:47:03;100616.14;;;18.53;96.4
63691;BME280;49837;57.280;27.070;2022-07-03T01:48:05;100616.77;;;18.54;96.38
63691;BME280;49837;57.280;27.070;2022-07-03T01:49:06;100621.55;;;18.49;96.49
63691;BME280;49837;57.280;27.070;2022-07-03T01:50:07;100622.05;;;18.48;96.82
63691;BME280;49837;57.280;27.070;2022-07-03T01:51:06;100621.0;;;18.5;96.77
63691;BME280;49837;57.280;27.070;2022-07-03T01:52:07;100623.34;;;18.52;96.63
63691;BME280;49837;57.280;27.070;2022-07-03T01:53:11;100623.62;;;18.53;96.55
63691;BME280;49837;57.280;27.070;2022-07-03T01:54:11;100625.22;;;18.53;96.61
63691;BME280;49837;57.280;27.070;2022-07-03T01:55:12;100627.06;;;18.49;96.91
63691;BME280;49837;57.280;27.070;2022-07-03T01:56:12;100628.15;;;18.52;96.92
63691;BME280;49837;57.280;27.070;2022-07-03T01:57:12;100624.04;;;18.56;96.86
63691;BME280;49837;57.280;27.070;2022-07-03T01:58:12;100624.87;;;18.6;96.7
63691;BME280;49837;57.280;27.070;2022-07-03T01:59:13;100628.83;;;18.66;96.45
63691;BME280;49837;57.280;27.070;2022-07-03T02:00:16;100625.67;;;18.65;96.23
63691;BME280;49837;57.280;27.070;2022-07-03T02:03:33;100622.05;;;18.74;95.78
63691;BME280;49837;57.280;27.070;2022-07-03T02:04:34;100621.78;;;18.8;95.35
63691;BME280;49837;57.280;27.070;2022-07-03T02:10:50;100623.81;;;18.8;95.57
63691;BME280;49837;57.280;27.070;2022-07-03T02:11:44;100620.23;;;18.83;95.51
63691;BME280;49837;57.280;27.070;2022-07-03T02:15:50;100622.0;;;18.82;95.8
63691;BME280;49837;57.280;27.070;2022-07-03T02:17:52;100614.34;;;18.83;96.01
63691;BME280;49837;57.280;27.070;2022-07-03T02:20:04;100615.12;;;18.86;95.77
63691;BME280;49837;57.280;27.070;2022-07-03T02:22:01;100612.19;;;18.87;95.55
63691;BME280;49837;57.280;27.070;2022-07-03T02:23:02;100613.94;;;18.88;95.62
63691;BME280;49837;57.280;27.070;2022-07-03T02:25:04;100614.55;;;18.92;95.41
63691;BME280;49837;57.280;27.070;2022-07-03T02:26:04;100614.83;;;18.92;95.33
63691;BME280;49837;57.280;27.070;2022-07-03T02:27:04;100613.03;;;18.98;95.28
63691;BME280;49837;57.280;27.070;2022-07-03T02:28:06;100618.89;;;19.0;94.98
63691;BME280;49837;57.280;27.070;2022-07-03T02:29:12;100616.41;;;18.98;94.98
63691;BME280;49837;57.280;27.070;2022-07-03T02:30:11;100618.91;;;18.97;95.33
63691;BME280;49837;57.280;27.070;2022-07-03T02:31:10;100622.89;;;18.9;95.6
63691;BME280;49837;57.280;27.070;2022-07-03T02:33:18;100621.25;;;18.88;96.07
63691;BME280;49837;57.280;27.070;2022-07-03T02:34:17;100621.03;;;18.91;96.03
63691;BME280;49837;57.280;27.070;2022-07-03T02:36:23;100618.22;;;18.89;96.33
63691;BME280;49837;57.280;27.070;2022-07-03T02:37:22;100617.64;;;18.93;96.26
63691;BME280;49837;57.280;27.070;2022-07-03T02:38:23;100619.73;;;19.0;96.21
63691;BME280;49837;57.280;27.070;2022-07-03T02:47:03;100620.92;;;19.01;95.7
63691;BME280;49837;57.280;27.070;2022-07-03T02:47:48;100621.19;;;19.09;95.35
63691;BME280;49837;57.280;27.070;2022-07-03T02:48:51;100622.99;;;19.11;95.22
63691;BME280;49837;57.280;27.070;2022-07-03T02:50:52;100623.1;;;19.13;95.1
63691;BME280;49837;57.280;27.070;2022-07-03T02:53:08;100621.21;;;19.05;95.48
63691;BME280;49837;57.280;27.070;2022-07-03T02:54:04;100621.59;;;19.06;95.37
63691;BME280;49837;57.280;27.070;2022-07-03T02:57:08;100619.45;;;19.09;95.16
63691;BME280;49837;57.280;27.070;2022-07-03T03:00:11;100616.78;;;19.13;95.24
63691;BME280;49837;57.280;27.070;2022-07-03T03:03:19;100618.69;;;19.14;95.29
63691;BME280;49837;57.280;27.070;2022-07-03T03:06:26;100609.28;;;19.14;95.11
63691;BME280;49837;57.280;27.070;2022-07-03T03:07:35;100606.22;;;19.19;94.97
63691;BME280;49837;57.280;27.070;2022-07-03T03:09:40;100610.27;;;19.26;94.76
63691;BME280;49837;57.280;27.070;2022-07-03T03:10:37;100609.72;;;19.25;94.43
63691;BME280;49837;57.280;27.070;2022-07-03T03:12:41;100614.17;;;19.22;94.82
63691;BME280;49837;57.280;27.070;2022-07-03T03:13:47;100611.24;;;19.24;94.8
63691;BME280;49837;57.280;27.070;2022-07-03T03:14:48;100614.85;;;19.23;94.65
63691;BME280;49837;57.280;27.070;2022-07-03T03:16:55;100617.81;;;19.3;94.65
63691;BME280;49837;57.280;27.070;2022-07-03T03:17:59;100620.6;;;19.36;94.17
63691;BME280;49837;57.280;27.070;2022-07-03T03:18:57;100618.52;;;19.38;94.4
63691;BME280;49837;57.280;27.070;2022-07-03T03:19:58;100624.69;;;19.46;94.1
63691;BME280;49837;57.280;27.070;2022-07-03T03:21:00;100617.92;;;19.5;93.83
63691;BME280;49837;57.280;27.070;2022-07-03T03:24:01;100615.71;;;19.53;93.18
63691;BME280;49837;57.280;27.070;2022-07-03T03:25:02;100612.94;;;19.52;93.08
63691;BME280;49837;57.280;27.070;2022-07-03T03:26:02;100612.77;;;19.52;92.94
63691;BME280;49837;57.280;27.070;2022-07-03T03:27:03;100612.84;;;19.51;92.88
63691;BME280;49837;57.280;27.070;2022-07-03T03:28:03;100611.81;;;19.53;93.19
63691;BME280;49837;57.280;27.070;2022-07-03T03:29:03;100609.2;;;19.56;92.88
63691;BME280;49837;57.280;27.070;2022-07-03T03:30:04;100610.09;;;19.56;92.52
63691;BME280;49837;57.280;27.070;2022-07-03T03:31:04;100614.3;;;19.54;92.72
63691;BME280;49837;57.280;27.070;2022-07-03T03:32:05;100613.92;;;19.59;92.98
63691;BME280;49837;57.280;27.070;2022-07-03T03:33:08;100611.79;;;19.59;92.72
63691;BME280;49837;57.280;27.070;2022-07-03T03:34:07;100613.28;;;19.63;92.39
63691;BME280;49837;57.280;27.070;2022-07-03T03:35:07;100610.33;;;19.59;92.37
63691;BME280;49837;57.280;27.070;2022-07-03T03:36:08;100612.57;;;19.47;92.46
63691;BME280;49837;57.280;27.070;2022-07-03T03:37:07;100613.19;;;19.5;92.76
63691;BME280;49837;57.280;27.070;2022-07-03T03:38:08;100613.88;;;19.57;92.53
63691;BME280;49837;57.280;27.070;2022-07-03T03:39:08;100616.88;;;19.54;93.02
63691;BME280;49837;57.280;27.070;2022-07-03T03:40:10;100616.34;;;19.42;93.72
63691;BME280;49837;57.280;27.070;2022-07-03T03:41:09;100617.96;;;19.38;93.71
63691;BME280;49837;57.280;27.070;2022-07-03T03:42:13;100612.83;;;19.49;93.38
63691;BME280;49837;57.280;27.070;2022-07-03T03:43:14;100614.85;;;19.53;94.36
63691;BME280;49837;57.280;27.070;2022-07-03T03:44:14;100615.23;;;19.57;94.63
63691;BME280;49837;57.280;27.070;2022-07-03T03:45:14;100612.42;;;19.54;93.58
63691;BME280;49837;57.280;27.070;2022-07-03T03:46:15;100611.76;;;19.52;94.18
63691;BME280;49837;57.280;27.070;2022-07-03T03:47:15;100609.88;;;19.53;93.57
63691;BME280;49837;57.280;27.070;2022-07-03T03:48:16;100613.16;;;19.53;94.1
63691;BME280;49837;57.280;27.070;2022-07-03T03:49:16;100608.53;;;19.53;95.35
63691;BME280;49837;57.280;27.070;2022-07-03T03:50:17;100606.14;;;19.47;95.31
63691;BME280;49837;57.280;27.070;2022-07-03T03:51:17;100608.14;;;19.43;94.85
63691;BME280;49837;57.280;27.070;2022-07-03T03:52:17;100605.44;;;19.42;95.3
63691;BME280;49837;57.280;27.070;2022-07-03T03:53:19;100609.16;;;19.38;95.45
63691;BME280;49837;57.280;27.070;2022-07-03T03:54:18;100612.94;;;19.4;95.84
63691;BME280;49837;57.280;27.070;2022-07-03T03:55:18;100607.78;;;19.44;96.24
63691;BME280;49837;57.280;27.070;2022-07-03T03:56:19;100607.97;;;19.41;95.24
63691;BME280;49837;57.280;27.070;2022-07-03T03:57:23;100603.84;;;19.42;95.54
63691;BME280;49837;57.280;27.070;2022-07-03T03:58:21;100602.48;;;19.42;96.32
63691;BME280;49837;57.280;27.070;2022-07-03T03:59:22;100599.68;;;19.38;95.52
63691;BME280;49837;57.280;27.070;2022-07-03T04:00:22;100599.48;;;19.37;95.22
63691;BME280;49837;57.280;27.070;2022-07-03T04:01:22;100599.57;;;19.38;95.22
63691;BME280;49837;57.280;27.070;2022-07-03T04:02:23;100601.36;;;19.45;95.5
63691;BME280;49837;57.280;27.070;2022-07-03T04:03:24;100601.59;;;19.45;95.22
63691;BME280;49837;57.280;27.070;2022-07-03T04:04:23;100600.47;;;19.42;95.05
63691;BME280;49837;57.280;27.070;2022-07-03T04:05:24;100602.7;;;19.47;95.51
63691;BME280;49837;57.280;27.070;2022-07-03T04:06:24;100605.44;;;19.35;95.23
63691;BME280;49837;57.280;27.070;2022-07-03T04:07:25;100600.74;;;19.4;95.19
63691;BME280;49837;57.280;27.070;2022-07-03T04:08:26;100602.6;;;19.42;94.96
63691;BME280;49837;57.280;27.070;2022-07-03T04:09:25;100605.31;;;19.44;95.35
63691;BME280;49837;57.280;27.070;2022-07-03T04:10:26;100606.23;;;19.36;95.47
63691;BME280;49837;57.280;27.070;2022-07-03T04:11:26;100602.75;;;19.36;95.94
63691;BME280;49837;57.280;27.070;2022-07-03T04:12:27;100597.89;;;19.38;95.24
63691;BME280;49837;57.280;27.070;2022-07-03T04:13:27;100599.42;;;19.38;95.55
63691;BME280;49837;57.280;27.070;2022-07-03T04:14:27;100601.75;;;19.29;94.82
63691;BME280;49837;57.280;27.070;2022-07-03T04:15:28;100596.39;;;19.34;95.01
63691;BME280;49837;57.280;27.070;2022-07-03T04:16:28;100597.05;;;19.35;95.27
63691;BME280;49837;57.280;27.070;2022-07-03T04:17:29;100601.86;;;19.31;95.64
63691;BME280;49837;57.280;27.070;2022-07-03T04:18:29;100603.42;;;19.32;95.76
63691;BME280;49837;57.280;27.070;2022-07-03T04:19:30;100602.3;;;19.37;95.81
63691;BME280;49837;57.280;27.070;2022-07-03T04:20:30;100604.44;;;19.32;95.85
63691;BME280;49837;57.280;27.070;2022-07-03T04:21:30;100604.37;;;19.24;95.75
63691;BME280;49837;57.280;27.070;2022-07-03T04:22:30;100607.39;;;19.27;95.67
63691;BME280;49837;57.280;27.070;2022-07-03T04:23:31;100606.16;;;19.26;95.9
63691;BME280;49837;57.280;27.070;2022-07-03T04:24:31;100603.83;;;19.34;95.87
63691;BME280;49837;57.280;27.070;2022-07-03T04:25:32;100605.61;;;19.38;95.47
63691;BME280;49837;57.280;27.070;2022-07-03T04:26:32;100603.44;;;19.29;95.62
63691;BME280;49837;57.280;27.070;2022-07-03T04:27:32;100604.18;;;19.32;95.67
63691;BME280;49837;57.280;27.070;2022-07-03T04:28:35;100603.64;;;19.34;95.98
63691;BME280;49837;57.280;27.070;2022-07-03T04:29:35;100599.11;;;19.41;95.78
63691;BME280;49837;57.280;27.070;2022-07-03T04:30:36;100598.52;;;19.35;95.73
63691;BME280;49837;57.280;27.070;2022-07-03T04:31:36;100600.06;;;19.31;96.18
63691;BME280;49837;57.280;27.070;2022-07-03T04:32:37;100600.56;;;19.33;96.68
63691;BME280;49837;57.280;27.070;2022-07-03T04:33:37;100597.06;;;19.35;96.25
63691;BME280;49837;57.280;27.070;2022-07-03T04:34:37;100598.42;;;19.42;96.27
63691;BME280;49837;57.280;27.070;2022-07-03T04:35:37;100601.07;;;19.49;96.51
63691;BME280;49837;57.280;27.070;2022-07-03T04:36:38;100603.42;;;19.48;96.06
63691;BME280;49837;57.280;27.070;2022-07-03T04:37:38;100607.02;;;19.52;96.21
63691;BME280;49837;57.280;27.070;2022-07-03T04:38:38;100605.84;;;19.5;96.35
63691;BME280;49837;57.280;27.070;2022-07-03T04:39:39;100611.0;;;19.43;96.49
63691;BME280;49837;57.280;27.070;2022-07-03T04:40:39;100609.94;;;19.42;96.48
63691;BME280;49837;57.280;27.070;2022-07-03T04:41:40;100612.86;;;19.46;96.75
63691;BME280;49837;57.280;27.070;2022-07-03T04:42:40;100614.05;;;19.45;95.84
63691;BME280;49837;57.280;27.070;2022-07-03T04:43:40;100613.76;;;19.49;96.79
63691;BME280;49837;57.280;27.070;2022-07-03T04:44:41;100615.03;;;19.49;96.45
63691;BME280;49837;57.280;27.070;2022-07-03T04:45:41;100617.78;;;19.39;96.33
63691;BME280;49837;57.280;27.070;2022-07-03T04:46:42;100616.28;;;19.35;97.09
63691;BME280;49837;57.280;27.070;2022-07-03T04:47:42;100613.27;;;19.38;97.0
63691;BME280;49837;57.280;27.070;2022-07-03T04:48:42;100622.96;;;19.42;97.62
63691;BME280;49837;57.280;27.070;2022-07-03T04:49:43;100622.37;;;19.33;97.32
63691;BME280;49837;57.280;27.070;2022-07-03T04:50:43;100621.72;;;19.42;97.59
63691;BME280;49837;57.280;27.070;2022-07-03T04:51:44;100627.78;;;19.5;97.55
63691;BME280;49837;57.280;27.070;2022-07-03T04:52:44;100626.12;;;19.58;98.0
63691;BME280;49837;57.280;27.070;2022-07-03T04:53:44;100631.5;;;19.48;95.92
63691;BME280;49837;57.280;27.070;2022-07-03T04:54:45;100635.32;;;19.39;96.85
63691;BME280;49837;57.280;27.070;2022-07-03T04:55:46;100633.75;;;19.35;97.48
63691;BME280;49837;57.280;27.070;2022-07-03T04:56:46;100633.84;;;19.41;97.91
63691;BME280;49837;57.280;27.070;2022-07-03T04:57:46;100638.48;;;19.35;97.92
63691;BME280;49837;57.280;27.070;2022-07-03T04:58:46;100638.83;;;19.38;98.21
63691;BME280;49837;57.280;27.070;2022-07-03T04:59:47;100640.09;;;19.43;98.36
63691;BME280;49837;57.280;27.070;2022-07-03T05:00:47;100640.55;;;19.42;98.49
63691;BME280;49837;57.280;27.070;2022-07-03T05:01:47;100639.86;;;19.23;97.9
63691;BME280;49837;57.280;27.070;2022-07-03T05:02:48;100640.59;;;19.28;98.11
63691;BME280;49837;57.280;27.070;2022-07-03T05:03:48;100641.98;;;19.39;97.91
63691;BME280;49837;57.280;27.070;2022-07-03T05:04:49;100639.5;;;19.34;97.45
63691;BME280;49837;57.280;27.070;2022-07-03T05:05:49;100644.03;;;19.31;97.71
63691;BME280;49837;57.280;27.070;2022-07-03T05:06:50;100639.23;;;19.29;97.52
63691;BME280;49837;57.280;27.070;2022-07-03T05:07:50;100641.39;;;19.32;98.0
63691;BME280;49837;57.280;27.070;2022-07-03T05:08:50;100644.64;;;19.31;98.33
63691;BME280;49837;57.280;27.070;2022-07-03T05:09:51;100645.03;;;19.35;98.28
63691;BME280;49837;57.280;27.070;2022-07-03T05:10:51;100648.11;;;19.2;97.51
63691;BME280;49837;57.280;27.070;2022-07-03T05:11:52;100643.94;;;19.23;98.21
63691;BME280;49837;57.280;27.070;2022-07-03T05:12:52;100648.2;;;19.29;98.49
63691;BME280;49837;57.280;27.070;2022-07-03T05:13:52;100646.78;;;19.34;98.2
63691;BME280;49837;57.280;27.070;2022-07-03T05:14:53;100646.89;;;19.28;98.16
63691;BME280;49837;57.280;27.070;2022-07-03T05:15:53;100645.4;;;19.23;98.07
63691;BME280;49837;57.280;27.070;2022-07-03T05:16:53;100646.12;;;19.2;98.26
63691;BME280;49837;57.280;27.070;2022-07-03T05:17:54;100652.6;;;19.28;98.9
63691;BME280;49837;57.280;27.070;2022-07-03T05:18:54;100650.34;;;19.3;98.35
63691;BME280;49837;57.280;27.070;2022-07-03T05:19:55;100648.12;;;19.35;98.16
63691;BME280;49837;57.280;27.070;2022-07-03T05:20:55;100648.49;;;19.26;97.62
63691;BME280;49837;57.280;27.070;2022-07-03T05:21:55;100650.48;;;19.25;98.15
63691;BME280;49837;57.280;27.070;2022-07-03T05:22:57;100650.97;;;19.27;98.27
63691;BME280;49837;57.280;27.070;2022-07-03T05:23:56;100649.27;;;19.24;97.69
63691;BME280;49837;57.280;27.070;2022-07-03T05:24:56;100650.12;;;19.23;98.42
63691;BME280;49837;57.280;27.070;2022-07-03T05:25:57;100649.64;;;19.22;98.37
63691;BME280;49837;57.280;27.070;2022-07-03T05:26:57;100650.34;;;19.32;97.78
63691;BME280;49837;57.280;27.070;2022-07-03T05:27:58;100649.94;;;19.35;97.88
63691;BME280;49837;57.280;27.070;2022-07-03T05:28:58;100650.17;;;19.34;97.93
63691;BME280;49837;57.280;27.070;2022-07-03T05:29:58;100644.23;;;19.34;97.43
63691;BME280;49837;57.280;27.070;2022-07-03T05:30:59;100644.41;;;19.35;97.9
63691;BME280;49837;57.280;27.070;2022-07-03T05:31:59;100646.89;;;19.32;97.64
63691;BME280;49837;57.280;27.070;2022-07-03T05:33:00;100647.1;;;19.22;97.83
63691;BME280;49837;57.280;27.070;2022-07-03T05:34:00;100644.28;;;19.23;97.8
63691;BME280;49837;57.280;27.070;2022-07-03T05:35:00;100646.27;;;19.3;97.89
63691;BME280;49837;57.280;27.070;2022-07-03T05:36:01;100642.25;;;19.36;97.2
63691;BME280;49837;57.280;27.070;2022-07-03T05:37:01;100643.12;;;19.46;97.31
63691;BME280;49837;57.280;27.070;2022-07-03T05:38:02;100641.58;;;19.57;96.04
63691;BME280;49837;57.280;27.070;2022-07-03T05:39:02;100635.88;;;19.68;95.38
63691;BME280;49837;57.280;27.070;2022-07-03T05:40:04;100634.03;;;19.69;95.11
63691;BME280;49837;57.280;27.070;2022-07-03T05:41:03;100628.44;;;19.68;94.67
63691;BME280;49837;57.280;27.070;2022-07-03T05:42:04;100630.48;;;19.79;94.76
63691;BME280;49837;57.280;27.070;2022-07-03T05:43:04;100628.12;;;19.9;94.23
63691;BME280;49837;57.280;27.070;2022-07-03T05:44:04;100626.24;;;19.98;93.23
63691;BME280;49837;57.280;27.070;2022-07-03T05:45:05;100626.69;;;19.97;92.3
63691;BME280;49837;57.280;27.070;2022-07-03T05:46:05;100625.98;;;20.03;92.62
63691;BME280;49837;57.280;27.070;2022-07-03T05:47:05;100627.03;;;20.06;92.93
63691;BME280;49837;57.280;27.070;2022-07-03T05:48:06;100624.81;;;20.0;92.37
63691;BME280;49837;57.280;27.070;2022-07-03T05:49:06;100629.84;;;20.1;92.89
63691;BME280;49837;57.280;27.070;2022-07-03T05:50:07;100631.25;;;20.08;91.73
63691;BME280;49837;57.280;27.070;2022-07-03T05:51:07;100630.03;;;20.21;91.67
63691;BME280;49837;57.280;27.070;2022-07-03T05:52:07;100635.68;;;20.3;91.44
63691;BME280;49837;57.280;27.070;2022-07-03T05:53:07;100633.41;;;20.39;91.22
63691;BME280;49837;57.280;27.070;2022-07-03T05:54:08;100638.43;;;20.48;90.72
63691;BME280;49837;57.280;27.070;2022-07-03T05:55:08;100638.73;;;20.39;90.91
63691;BME280;49837;57.280;27.070;2022-07-03T05:56:09;100635.66;;;20.33;90.53
63691;BME280;49837;57.280;27.070;2022-07-03T05:57:09;100636.31;;;20.3;90.91
63691;BME280;49837;57.280;27.070;2022-07-03T05:58:10;100636.3;;;20.24;90.9
63691;BME280;49837;57.280;27.070;2022-07-03T05:59:10;100633.3;;;20.24;90.92
63691;BME280;49837;57.280;27.070;2022-07-03T06:00:11;100628.45;;;20.37;90.68
63691;BME280;49837;57.280;27.070;2022-07-03T06:01:11;100631.47;;;20.49;90.4
63691;BME280;49837;57.280;27.070;2022-07-03T06:02:11;100636.63;;;20.47;91.11
63691;BME280;49837;57.280;27.070;2022-07-03T06:03:11;100634.5;;;20.37;91.1
63691;BME280;49837;57.280;27.070;2022-07-03T06:04:12;100638.0;;;20.13;90.75
63691;BME280;49837;57.280;27.070;2022-07-03T06:05:12;100634.12;;;19.99;90.97
63691;BME280;49837;57.280;27.070;2022-07-03T06:06:13;100634.65;;;19.96;91.93
63691;BME280;49837;57.280;27.070;2022-07-03T06:07:13;100634.73;;;19.83;92.42
63691;BME280;49837;57.280;27.070;2022-07-03T06:08:13;100638.12;;;19.87;93.66
63691;BME280;49837;57.280;27.070;2022-07-03T06:09:14;100637.72;;;19.91;93.21
63691;BME280;49837;57.280;27.070;2022-07-03T06:10:14;100640.52;;;19.76;92.9
63691;BME280;49837;57.280;27.070;2022-07-03T06:11:15;100635.41;;;19.63;93.9
63691;BME280;49837;57.280;27.070;2022-07-03T06:12:15;100639.06;;;19.63;93.52
63691;BME280;49837;57.280;27.070;2022-07-03T06:13:15;100639.55;;;19.66;93.9
63691;BME280;49837;57.280;27.070;2022-07-03T06:14:16;100638.88;;;19.67;93.16